createdAt,value
2019-04-26T00:02:09.117Z,77.22
2019-04-26T00:04:38.574Z,77.45
2019-04-26T00:07:06.887Z,79.79
2019-04-26T00:09:37.078Z,79.89
2019-04-26T00:12:11.204Z,81.38
2019-04-26T00:14:51.005Z,80.18
2019-04-26T00:17:22.147Z,79.24
2019-04-26T00:19:51.340Z,78.82
2019-04-26T00:22:21.039Z,76.97
2019-04-26T00:24:49.782Z,78.92
2019-04-26T00:27:19.012Z,78.77
2019-04-26T00:29:47.678Z,80.10
2019-04-26T00:32:17.248Z,80.94
2019-04-26T00:34:46.032Z,85.80
2019-04-26T00:37:14.529Z,86.21
2019-04-26T00:39:42.944Z,86.45
2019-04-26T00:42:12.228Z,86.24
2019-04-26T00:44:41.986Z,86.74
2019-04-26T00:47:10.612Z,86.35
2019-04-26T00:49:43.933Z,87.30
2019-04-26T00:52:09.888Z,87.34
2019-04-26T00:54:38.789Z,88.36
2019-04-26T00:57:07.210Z,88.68
2019-04-26T00:59:37.082Z,87.62
2019-04-26T01:02:10.304Z,88.58
2019-04-26T01:04:38.595Z,89.27
2019-04-26T01:07:07.070Z,89.21
2019-04-26T01:09:37.084Z,88.19
2019-04-26T01:12:05.740Z,87.67
2019-04-26T01:14:34.186Z,88.32
2019-04-26T01:17:02.526Z,88.06
2019-04-26T01:19:31.803Z,88.74
2019-04-26T01:22:03.447Z,89.09
2019-04-26T01:24:34.678Z,88.96
2019-04-26T01:27:05.192Z,88.42
2019-04-26T01:29:34.573Z,88.52
2019-04-26T01:32:06.046Z,88.86
2019-04-26T01:37:22.526Z,91.83
2019-04-26T01:39:55.123Z,88.80
2019-04-26T01:42:28.392Z,87.92
2019-04-26T01:45:16.263Z,88.65
2019-04-26T01:47:46.076Z,89.56
2019-04-26T01:50:15.273Z,89.37
2019-04-26T01:52:44.374Z,90.32
2019-04-26T01:55:12.973Z,94.56
2019-04-26T01:57:42.357Z,96.67
2019-04-26T02:00:14.090Z,98.37
2019-04-26T02:02:45.316Z,100.00
2019-04-26T02:05:18.625Z,100.00
2019-04-26T02:07:47.880Z,100.00
2019-04-26T02:10:18.944Z,100.00
2019-04-26T02:12:48.944Z,100.00
2019-04-26T02:15:19.226Z,100.00
2019-04-26T02:17:49.157Z,100.00
2019-04-26T02:20:37.009Z,100.00
2019-04-26T02:23:07.204Z,100.00
2019-04-26T02:25:35.634Z,100.00
2019-04-26T02:28:04.243Z,100.00
2019-04-26T02:30:35.376Z,100.00
2019-04-26T02:33:04.093Z,100.00
2019-04-26T02:35:34.015Z,100.00
2019-04-26T02:38:03.115Z,100.00
2019-04-26T02:40:33.069Z,100.00
2019-04-26T02:43:01.920Z,100.00
2019-04-26T02:45:43.617Z,100.00
2019-04-26T02:48:34.264Z,100.00
2019-04-26T02:51:05.656Z,100.00
2019-04-26T02:53:46.076Z,100.00
2019-04-26T02:56:34.106Z,100.00
2019-04-26T02:59:11.651Z,100.00
2019-04-26T03:01:40.243Z,100.00
2019-04-26T03:04:08.978Z,100.00
2019-04-26T03:06:40.612Z,100.00
2019-04-26T03:09:09.099Z,100.00
2019-04-26T03:11:46.642Z,100.00
2019-04-26T03:14:17.694Z,100.00
2019-04-26T03:16:53.899Z,100.00
2019-04-26T03:19:47.280Z,100.00
2019-04-26T03:22:47.307Z,100.00
2019-04-26T03:25:21.609Z,100.00
2019-04-26T03:28:11.233Z,100.00
2019-04-26T03:31:19.439Z,100.00
2019-04-26T03:34:03.222Z,100.00
2019-04-26T03:36:56.553Z,100.00
2019-04-26T03:39:37.161Z,100.00
2019-04-26T03:42:13.288Z,100.00
2019-04-26T03:45:07.157Z,100.00
2019-04-26T03:47:41.966Z,94.44
2019-04-26T03:50:11.953Z,98.89
2019-04-26T03:52:52.560Z,95.85
2019-04-26T03:55:28.638Z,99.32
2019-04-26T04:00:56.028Z,100.00
2019-04-26T04:03:37.490Z,100.00
2019-04-26T04:06:07.655Z,100.00
2019-04-26T04:08:50.908Z,100.00
2019-04-26T04:11:22.492Z,100.00
2019-04-26T04:13:57.217Z,100.00
2019-04-26T04:16:39.346Z,100.00
2019-04-26T04:19:21.265Z,100.00
2019-04-26T04:22:15.561Z,100.00
2019-04-26T04:24:53.550Z,100.00
2019-04-26T04:27:27.833Z,100.00
2019-04-26T04:30:23.493Z,100.00
2019-04-26T04:33:00.735Z,100.00
2019-04-26T04:35:32.664Z,100.00
2019-04-26T04:38:15.538Z,100.00
2019-04-26T04:41:13.512Z,100.00
2019-04-26T04:43:53.235Z,100.00
2019-04-26T04:46:49.633Z,100.00
2019-04-26T04:49:44.456Z,100.00
2019-04-26T04:52:28.045Z,100.00
2019-04-26T04:55:11.476Z,100.00
2019-04-26T04:57:54.974Z,100.00
2019-04-26T05:00:40.086Z,100.00
2019-04-26T05:03:31.690Z,100.00
2019-04-26T05:06:09.996Z,100.00
2019-04-26T05:08:58.272Z,96.30
2019-04-26T05:11:32.638Z,93.03
2019-04-26T05:14:07.091Z,92.19
2019-04-26T05:16:40.201Z,91.51
2019-04-26T05:19:45.843Z,89.52
2019-04-26T05:22:43.496Z,86.57
2019-04-26T05:26:00.718Z,85.08
2019-04-26T05:29:05.464Z,85.07
2019-04-26T05:31:51.535Z,80.77
2019-04-26T05:34:46.208Z,78.91
2019-04-26T05:37:42.419Z,76.91
2019-04-26T05:40:16.724Z,78.12
2019-04-26T05:43:24.478Z,78.53
2019-04-26T05:46:03.033Z,75.58
2019-04-26T05:48:38.851Z,73.77
2019-04-26T05:51:17.996Z,74.34
2019-04-26T05:54:25.185Z,72.40
2019-04-26T05:57:06.922Z,73.20
2019-04-26T06:00:01.154Z,72.15
2019-04-26T06:02:51.307Z,67.63
2019-04-26T06:06:05.047Z,67.43
2019-04-26T06:09:08.723Z,68.68
2019-04-26T06:11:51.887Z,70.57
2019-04-26T06:14:50.509Z,70.87
2019-04-26T06:17:44.741Z,65.69
2019-04-26T06:20:35.755Z,65.03
2019-04-26T06:23:16.075Z,65.14
2019-04-26T06:25:57.946Z,67.52
2019-04-26T06:28:40.269Z,65.54
2019-04-26T06:31:20.681Z,64.91
2019-04-26T06:33:52.173Z,70.39
2019-04-26T06:36:23.829Z,70.39
2019-04-26T06:39:16.659Z,69.70
2019-04-26T06:42:06.255Z,71.42
2019-04-26T06:45:03.224Z,71.29
2019-04-26T06:47:39.337Z,68.14
2019-04-26T06:50:18.510Z,75.59
2019-04-26T06:52:49.974Z,68.51
2019-04-26T06:55:37.582Z,72.24
2019-04-26T06:58:32.692Z,71.56
2019-04-26T07:01:06.271Z,73.32
2019-04-26T07:03:58.200Z,74.84
2019-04-26T07:06:38.923Z,73.23
2019-04-26T07:09:11.532Z,65.26
2019-04-26T07:11:54.088Z,66.73
2019-04-26T07:15:03.704Z,63.15
2019-04-26T07:17:38.273Z,62.25
2019-04-26T07:20:28.365Z,59.33
2019-04-26T07:23:07.988Z,59.17
2019-04-26T07:25:52.763Z,58.57
2019-04-26T07:28:37.638Z,59.06
2019-04-26T07:31:15.007Z,56.31
2019-04-26T07:34:03.501Z,56.34
2019-04-26T07:36:35.047Z,56.55
2019-04-26T07:39:20.008Z,55.66
2019-04-26T07:42:07.485Z,54.41
2019-04-26T07:45:02.262Z,57.77
2019-04-26T07:47:34.317Z,57.77
2019-04-26T07:50:40.383Z,58.34
2019-04-26T07:53:43.713Z,57.09
2019-04-26T07:56:17.910Z,58.75
2019-04-26T07:59:08.891Z,55.71
2019-04-26T08:02:19.263Z,55.63
2019-04-26T08:04:53.571Z,59.83
2019-04-26T08:07:25.536Z,59.83
2019-04-26T08:10:00.219Z,59.85
2019-04-26T08:12:30.634Z,58.94
2019-04-26T08:15:20.729Z,59.17
2019-04-26T08:17:53.301Z,54.41
2019-04-26T08:20:32.117Z,55.39
2019-04-26T08:23:09.005Z,54.84
2019-04-26T08:25:35.586Z,53.28
2019-04-26T08:28:06.803Z,56.13
2019-04-26T08:30:40.596Z,56.52
2019-04-26T08:33:13.090Z,55.86
2019-04-26T08:35:44.341Z,57.81
2019-04-26T08:38:19.170Z,59.76
2019-04-26T08:40:43.410Z,57.02
2019-04-26T08:43:20.186Z,57.22
2019-04-26T08:46:12.578Z,57.22
2019-04-26T08:49:02.137Z,58.60
2019-04-26T08:51:32.788Z,57.40
2019-04-26T08:54:03.222Z,57.58
2019-04-26T08:56:36.215Z,56.62
2019-04-26T08:59:24.907Z,57.98
2019-04-26T09:02:12.689Z,55.92
2019-04-26T09:04:56.793Z,55.16
2019-04-26T09:07:31.319Z,56.07
2019-04-26T09:10:05.454Z,54.17
2019-04-26T09:12:32.802Z,55.78
2019-04-26T09:15:05.293Z,55.01
2019-04-26T09:17:33.843Z,54.21
2019-04-26T09:20:07.023Z,55.35
2019-04-26T09:22:34.196Z,55.44
2019-04-26T09:25:04.135Z,54.37
2019-04-26T09:27:34.107Z,52.70
2019-04-26T09:30:09.999Z,53.70
2019-04-26T09:32:42.366Z,54.73
2019-04-26T09:35:11.256Z,51.38
2019-04-26T09:37:41.109Z,52.10
2019-04-26T09:40:10.833Z,55.42
2019-04-26T09:43:00.276Z,52.31
2019-04-26T09:45:36.301Z,55.78
2019-04-26T09:48:08.902Z,52.16
2019-04-26T09:50:38.842Z,49.87
2019-04-26T09:53:08.192Z,50.29
2019-04-26T09:55:36.791Z,48.65
2019-04-26T09:58:08.438Z,47.65
2019-04-26T10:00:35.869Z,45.13
2019-04-26T10:03:09.037Z,44.17
2019-04-26T10:05:35.322Z,50.88
2019-04-26T10:08:04.335Z,54.43
2019-04-26T10:10:35.222Z,54.28
2019-04-26T10:13:20.882Z,54.23
2019-04-26T10:15:58.231Z,55.17
2019-04-26T10:18:26.787Z,56.06
2019-04-26T10:20:55.084Z,55.37
2019-04-26T10:23:23.541Z,55.60
2019-04-26T10:25:53.484Z,54.59
2019-04-26T10:28:22.214Z,56.95
2019-04-26T10:30:51.353Z,57.13
2019-04-26T10:33:19.736Z,56.78
2019-04-26T10:35:48.108Z,56.37
2019-04-26T10:38:19.428Z,59.08
2019-04-26T10:40:46.880Z,57.46
2019-04-26T10:43:15.246Z,58.36
2019-04-26T10:45:45.886Z,59.81
2019-04-26T10:48:15.253Z,60.46
2019-04-26T10:50:43.717Z,61.08
2019-04-26T10:53:16.712Z,61.71
2019-04-26T10:56:04.713Z,63.28
2019-04-26T10:58:40.686Z,63.47
2019-04-26T11:01:13.992Z,63.16
2019-04-26T11:03:42.294Z,63.35
2019-04-26T11:06:10.656Z,67.08
2019-04-26T11:08:38.983Z,64.92
2019-04-26T11:11:09.758Z,65.46
2019-04-26T11:13:38.141Z,65.66
2019-04-26T11:16:08.764Z,67.32
2019-04-26T11:18:37.054Z,67.74
2019-04-26T11:21:05.751Z,69.43
2019-04-26T11:23:34.119Z,67.56
2019-04-26T11:26:02.942Z,68.98
2019-04-26T11:28:31.591Z,69.55
2019-04-26T11:30:59.981Z,70.16
2019-04-26T11:33:28.673Z,71.57
2019-04-26T11:35:57.019Z,70.77
2019-04-26T11:38:26.893Z,71.43
2019-04-26T11:41:05.909Z,71.34
2019-04-26T11:43:25.388Z,72.77
2019-04-26T11:46:03.776Z,72.41
2019-04-26T11:48:25.408Z,73.37
2019-04-26T11:50:53.922Z,73.86
2019-04-26T11:53:22.241Z,73.06
2019-04-26T11:55:50.606Z,74.26
2019-04-26T11:58:22.637Z,73.81
2019-04-26T12:00:53.441Z,73.87
2019-04-26T12:03:24.942Z,74.71
2019-04-26T12:05:53.495Z,76.15
2019-04-26T12:08:35.839Z,73.79
2019-04-26T12:11:04.369Z,75.01
2019-04-26T12:13:33.134Z,74.17
2019-04-26T12:16:01.411Z,74.50
2019-04-26T12:18:29.851Z,76.54
2019-04-26T12:21:01.099Z,75.17
2019-04-26T12:23:28.709Z,76.23
2019-04-26T12:25:57.004Z,75.13
2019-04-26T12:28:25.317Z,75.52
2019-04-26T12:30:54.308Z,74.44
2019-04-26T12:33:23.690Z,74.49
2019-04-26T12:35:57.082Z,75.07
2019-04-26T12:38:24.173Z,73.70
2019-04-26T12:40:52.386Z,74.28
2019-04-26T12:43:24.634Z,73.13
2019-04-26T12:45:52.630Z,73.82
2019-04-26T12:48:22.588Z,72.91
2019-04-26T12:50:50.953Z,69.35
2019-04-26T12:53:19.360Z,69.71
2019-04-26T12:55:49.109Z,68.33
2019-04-26T12:58:17.755Z,69.69
2019-04-26T13:00:53.670Z,68.95
2019-04-26T13:03:20.582Z,68.92
2019-04-26T13:05:49.723Z,69.10
2019-04-26T13:08:17.031Z,67.83
2019-04-26T13:10:48.260Z,68.20
2019-04-26T13:13:18.260Z,66.91
2019-04-26T13:15:56.663Z,66.83
2019-04-26T13:18:25.025Z,65.30
2019-04-26T13:20:53.707Z,62.95
2019-04-26T13:23:25.373Z,63.23
2019-04-26T13:25:55.387Z,62.69
2019-04-26T13:28:22.141Z,60.86
2019-04-26T13:30:51.614Z,59.58
2019-04-26T13:33:23.261Z,59.35
2019-04-26T13:36:02.190Z,56.26
2019-04-26T13:38:20.026Z,56.02
2019-04-26T13:40:48.414Z,56.90
2019-04-26T13:43:16.716Z,55.79
2019-04-26T13:45:49.508Z,55.80
2019-04-26T13:48:39.256Z,55.23
2019-04-26T13:51:07.572Z,53.89
2019-04-26T13:53:35.879Z,54.13
2019-04-26T13:56:04.333Z,53.95
2019-04-26T13:58:32.704Z,54.71
2019-04-26T14:01:02.242Z,53.84
2019-04-26T14:03:31.658Z,54.80
2019-04-26T14:06:01.163Z,52.96
2019-04-26T14:08:29.512Z,53.18
2019-04-26T14:10:58.213Z,52.55
2019-04-26T14:13:26.500Z,52.31
2019-04-26T14:15:54.883Z,52.21
2019-04-26T14:18:23.260Z,53.26
2019-04-26T14:20:54.644Z,55.62
2019-04-26T14:23:29.236Z,55.46
2019-04-26T14:26:11.018Z,56.34
2019-04-26T14:28:41.872Z,59.27
2019-04-26T14:31:12.193Z,59.17
2019-04-26T14:33:39.463Z,60.92
2019-04-26T14:36:17.656Z,62.98
2019-04-26T14:38:40.078Z,62.32
2019-04-26T14:41:08.244Z,64.21
2019-04-26T14:43:40.995Z,63.73
2019-04-26T14:46:10.454Z,65.66
2019-04-26T14:48:40.482Z,65.53
2019-04-26T14:51:08.216Z,66.41
2019-04-26T14:53:38.078Z,68.51
2019-04-26T14:56:06.754Z,67.83
2019-04-26T14:58:35.051Z,68.46
2019-04-26T15:01:05.153Z,67.06
2019-04-26T15:03:40.825Z,67.24
2019-04-26T15:06:16.896Z,68.26
2019-04-26T15:08:48.660Z,69.45
2019-04-26T15:11:16.731Z,71.63
2019-04-26T15:13:45.023Z,71.95
2019-04-26T15:16:14.231Z,74.42
2019-04-26T15:18:43.044Z,74.98
2019-04-26T15:21:12.864Z,76.59
2019-04-26T15:23:41.295Z,77.99
2019-04-26T15:26:09.956Z,79.16
2019-04-26T15:28:38.464Z,80.34
2019-04-26T15:31:06.833Z,82.40
2019-04-26T15:33:36.122Z,83.23
2019-04-26T15:36:06.371Z,84.84
2019-04-26T15:38:41.569Z,85.92
2019-04-26T15:41:16.972Z,87.67
2019-04-26T15:43:53.512Z,88.59
2019-04-26T15:46:44.111Z,90.62
2019-04-26T15:49:32.226Z,92.12
2019-04-26T15:51:59.754Z,93.64
2019-04-26T15:54:29.186Z,95.56
2019-04-26T15:56:57.936Z,95.92
2019-04-26T15:59:26.310Z,96.74
2019-04-26T16:01:56.222Z,98.30
2019-04-26T16:04:25.053Z,100.00
2019-04-26T16:06:53.364Z,100.00
2019-04-26T16:09:22.955Z,100.00
2019-04-26T16:11:53.130Z,100.00
2019-04-26T16:14:26.365Z,100.00
2019-04-26T16:16:52.453Z,100.00
2019-04-26T16:19:21.574Z,100.00
2019-04-26T16:21:54.034Z,100.00
2019-04-26T16:24:20.270Z,100.00
2019-04-26T16:26:55.682Z,100.00
2019-04-26T16:29:24.450Z,100.00
2019-04-26T16:32:03.520Z,100.00
2019-04-26T16:34:33.458Z,100.00
2019-04-26T16:37:03.062Z,100.00
2019-04-26T16:39:38.297Z,100.00
2019-04-26T16:42:05.060Z,100.00
2019-04-26T16:44:33.476Z,100.00
2019-04-26T16:47:05.665Z,100.00
2019-04-26T16:49:35.115Z,100.00
2019-04-26T16:52:06.730Z,100.00
2019-04-26T16:54:34.257Z,100.00
2019-04-26T16:57:06.658Z,100.00
2019-04-26T16:59:32.847Z,100.00
2019-04-26T17:02:02.779Z,100.00
2019-04-26T17:04:35.086Z,100.00
2019-04-26T17:07:02.854Z,100.00
2019-04-26T17:09:54.833Z,100.00
2019-04-26T17:12:02.506Z,100.00
2019-04-26T17:14:33.909Z,100.00
2019-04-26T17:17:03.179Z,100.00
2019-04-26T17:19:34.259Z,100.00
2019-04-26T17:22:14.119Z,100.00
2019-04-26T17:24:55.585Z,100.00
2019-04-26T17:27:25.522Z,100.00
2019-04-26T17:29:53.830Z,100.00
2019-04-26T17:32:23.246Z,100.00
2019-04-26T17:34:52.296Z,100.00
2019-04-26T17:37:26.252Z,100.00
2019-04-26T17:39:55.237Z,100.00
2019-04-26T17:42:25.234Z,100.00
2019-04-26T17:44:52.190Z,100.00
2019-04-26T17:47:20.612Z,100.00
2019-04-26T17:49:50.175Z,100.00
2019-04-26T17:52:20.403Z,100.00
2019-04-26T17:54:49.635Z,100.00
2019-04-26T17:57:32.001Z,100.00
2019-04-26T17:59:51.553Z,100.00
2019-04-26T18:02:38.711Z,100.00
2019-04-26T18:04:58.885Z,100.00
2019-04-26T18:07:37.701Z,100.00
2019-04-26T18:09:50.648Z,100.00
2019-04-26T18:12:20.667Z,100.00
2019-04-26T18:14:49.158Z,100.00
2019-04-26T18:17:28.010Z,100.00
2019-04-26T18:20:07.965Z,100.00
2019-04-26T18:22:46.995Z,100.00
2019-04-26T18:25:15.308Z,100.00
2019-04-26T18:27:43.654Z,100.00
2019-04-26T18:30:14.288Z,100.00
2019-04-26T18:32:47.540Z,100.00
2019-04-26T18:35:16.498Z,100.00
2019-04-26T18:37:42.753Z,100.00
2019-04-26T18:40:11.434Z,100.00
2019-04-26T18:42:41.885Z,100.00
2019-04-26T18:45:10.173Z,100.00
2019-04-26T18:47:43.867Z,100.00
2019-04-26T18:50:12.994Z,100.00
2019-04-26T18:52:42.943Z,100.00
2019-04-26T18:55:16.176Z,100.00
2019-04-26T18:57:47.298Z,100.00
2019-04-26T19:00:15.260Z,100.00
2019-04-26T19:02:43.586Z,100.00
2019-04-26T19:05:14.147Z,100.00
2019-04-26T19:07:42.587Z,100.00
2019-04-26T19:10:12.058Z,100.00
2019-04-26T19:12:43.535Z,100.00
2019-04-26T19:15:13.799Z,100.00
2019-04-26T19:18:04.396Z,100.00
2019-04-26T19:20:36.459Z,100.00
2019-04-26T19:23:06.768Z,100.00
2019-04-26T19:25:40.622Z,100.00
2019-04-26T19:28:08.175Z,100.00
2019-04-26T19:30:40.109Z,100.00
2019-04-26T19:33:11.770Z,100.00
2019-04-26T19:35:39.416Z,100.00
2019-04-26T19:38:07.483Z,100.00
2019-04-26T19:40:39.335Z,100.00
2019-04-26T19:43:09.127Z,100.00
2019-04-26T19:45:39.548Z,100.00
2019-04-26T19:48:20.671Z,100.00
2019-04-26T19:51:02.941Z,100.00
2019-04-26T19:53:42.426Z,100.00
2019-04-26T19:56:12.615Z,100.00
2019-04-26T19:58:45.799Z,100.00
2019-04-26T20:01:16.536Z,100.00
2019-04-26T20:03:47.210Z,100.00
2019-04-26T20:06:18.636Z,100.00
2019-04-26T20:08:45.928Z,100.00
2019-04-26T20:11:18.577Z,100.00
2019-04-26T20:13:46.825Z,100.00
2019-04-26T20:16:13.897Z,100.00
2019-04-26T20:18:42.548Z,100.00
2019-04-26T20:21:15.232Z,100.00
2019-04-26T20:23:45.881Z,100.00
2019-04-26T20:26:12.040Z,100.00
2019-04-26T20:28:42.149Z,100.00
2019-04-26T20:31:30.408Z,100.00
2019-04-26T20:33:58.695Z,100.00
2019-04-26T20:36:27.070Z,100.00
2019-04-26T20:38:55.830Z,100.00
2019-04-26T20:41:24.450Z,100.00
2019-04-26T20:44:05.051Z,100.00
2019-04-26T20:46:25.138Z,100.00
2019-04-26T20:48:53.629Z,100.00
2019-04-26T20:51:22.456Z,100.00
2019-04-26T20:53:51.982Z,100.00
2019-04-26T20:56:20.258Z,100.00
2019-04-26T20:58:48.582Z,100.00
2019-04-26T21:01:17.730Z,100.00
2019-04-26T21:03:46.385Z,100.00
2019-04-26T21:06:14.766Z,100.00
2019-04-26T21:08:43.063Z,100.00
2019-04-26T21:11:13.570Z,100.00
2019-04-26T21:13:41.636Z,100.00
2019-04-26T21:16:13.248Z,100.00
2019-04-26T21:18:42.288Z,100.00
2019-04-26T21:21:10.644Z,100.00
2019-04-26T21:23:42.279Z,100.00
2019-04-26T21:26:17.952Z,100.00
2019-04-26T21:28:54.294Z,100.00
2019-04-26T21:31:27.352Z,100.00
2019-04-26T21:33:59.777Z,100.00
2019-04-26T21:36:29.744Z,100.00
2019-04-26T21:39:05.850Z,100.00
2019-04-26T21:41:34.070Z,100.00
2019-04-26T21:44:03.165Z,100.00
2019-04-26T21:46:33.962Z,100.00
2019-04-26T21:49:03.611Z,100.00
2019-04-26T21:51:33.854Z,100.00
2019-04-26T21:54:03.847Z,100.00
2019-04-26T21:56:33.744Z,100.00
2019-04-26T21:59:03.623Z,100.00
2019-04-26T22:01:33.110Z,100.00
2019-04-26T22:04:03.067Z,100.00
2019-04-26T22:06:33.332Z,100.00
2019-04-26T22:09:09.139Z,100.00
2019-04-26T22:11:37.457Z,100.00
2019-04-26T22:14:07.850Z,100.00
2019-04-26T22:16:38.190Z,100.00
2019-04-26T22:19:16.855Z,100.00
2019-04-26T22:21:59.380Z,100.00
2019-04-26T22:24:36.533Z,100.00
2019-04-26T22:27:04.895Z,100.00
2019-04-26T22:29:33.446Z,100.00
2019-04-26T22:32:03.639Z,100.00
2019-04-26T22:34:32.251Z,100.00
2019-04-26T22:37:01.287Z,100.00
2019-04-26T22:39:32.538Z,100.00
2019-04-26T22:42:02.849Z,100.00
2019-04-26T22:44:34.382Z,100.00
2019-04-26T22:47:10.325Z,100.00
2019-04-26T22:49:41.876Z,100.00
2019-04-26T22:52:11.247Z,100.00
2019-04-26T22:54:42.848Z,100.00
2019-04-26T22:57:13.081Z,100.00
2019-04-26T22:59:43.355Z,100.00
2019-04-26T23:02:13.725Z,100.00
2019-04-26T23:04:42.297Z,100.00
2019-04-26T23:07:10.965Z,100.00
2019-04-26T23:09:39.936Z,100.00
2019-04-26T23:12:21.408Z,100.00
2019-04-26T23:14:56.611Z,100.00
2019-04-26T23:17:38.518Z,100.00
2019-04-26T23:20:16.992Z,100.00
2019-04-26T23:22:45.639Z,100.00
2019-04-26T23:25:13.956Z,100.00
2019-04-26T23:27:43.524Z,100.00
2019-04-26T23:30:13.431Z,100.00
2019-04-26T23:32:43.342Z,100.00
2019-04-26T23:35:13.596Z,100.00
2019-04-26T23:37:42.211Z,100.00
2019-04-26T23:40:10.590Z,100.00
2019-04-26T23:42:38.894Z,100.00
2019-04-26T23:45:10.870Z,100.00
2019-04-26T23:47:38.749Z,100.00
2019-04-26T23:50:07.387Z,100.00
2019-04-26T23:52:35.884Z,100.00
2019-04-26T23:55:08.661Z,100.00
2019-04-26T23:57:36.305Z,100.00
